Time;durP1;ratioP1;P1;durP2;ratioP2;P2;SDS_P1;SDS_P2;PMS_P1;PMS_P2;Temp;Humidity;BMP_temperature;BMP_pressure;BME280_temperature;BME280_humidity;BME280_pressure;Samples;Min_cycle;Max_cycle;Signal;HPM_P1;HPM_P2
2022/11/28 00:22:09;;;;;;;;;;;;;;;;;;;;;
2022/11/28 00:28:17;;;;;;;;;;;;;;;;;;;;;
2022/11/28 00:30:59;;;;;;;;;5.00;5.00;;;;;;;;4992385;28;75615;-82
2022/11/28 00:33:56;;;;;;;;;11.67;7.00;;;;;;;;4989446;28;46254;-82
2022/11/28 00:37:19;;;;;;;;;;;;;;;;;;;;;
2022/11/28 00:40:09;;;;;;;;;;;;;;;;;;;;;
2022/11/28 00:43:21;;;;;;;;;8.33;7.33;;;;;;;;4897579;28;74192;-83
2022/11/28 02:11:30;;;;;;;;;13.00;9.00;;;;;;;;4781044;29;45351;-85
2022/11/28 02:17:43;;;;;;;;;10.67;9.00;;;;;;;;4831723;29;44875;-84
2022/11/28 02:20:30;;;;;;;;;9.67;7.67;;;;;;;;4857475;29;45485;-83
2022/11/28 02:23:15;;;;;;;;;11.00;10.00;;;;;;;;4943173;28;44863;-84
2022/11/28 02:26:04;;;;;;;;;10.67;8.67;;;;;;;;4990085;28;45438;-86
2022/11/28 02:28:52;;;;;;;;;11.67;10.67;;;;;;;;5004874;28;45313;-83
2022/11/28 02:31:24;;;;;;;;;11.33;11.00;;;;;;;;4993874;28;45795;-81
2022/11/28 02:33:56;;;;;;;;;12.00;10.00;;;;;;;;4982989;28;45334;-82
2022/11/28 02:36:31;;;;;;;;;8.33;7.00;;;;;;;;4994616;28;46476;-83
2022/11/28 02:39:15;;;;;;;;;8.00;5.33;;;;;;;;5006255;28;45612;-82
2022/11/28 02:41:46;;;;;;;;;12.67;10.67;;;;;;;;4981910;28;45429;-81
2022/11/28 02:44:14;;;;;;;;;7.00;7.00;;;;;;;;4980305;28;45715;-82
2022/11/28 02:46:46;;;;;;;;;9.00;9.00;;;;;;;;4967206;28;47333;-83
2022/11/28 03:24:07;;;;;;;;;;;;;;;;;;;;;
2022/11/28 03:49:05;;;;;;;;;10.67;9.00;;;;;;;;4768007;29;45462;-83
2022/11/28 04:04:08;;;;;;;;;11.00;11.00;;;;;;;;4875182;28;45803;-79
2022/11/28 04:20:43;;;;;;;;;;;;;;;;;;;;;
2022/11/28 04:23:59;;;;;;;;;;;;;;;;;;;;;
2022/11/28 04:27:14;;;;;;;;;;;;;;;;;;;;;
2022/11/28 04:33:15;;;;;;;;;;;;;;;;;;;;;
2022/11/28 04:35:49;;;;;;;;;12.67;11.33;;;;;;;;4840951;29;72738;-83
2022/11/28 04:38:48;;;;;;;;;;;;;;;;;;;;;
2022/11/28 04:41:20;;;;;;;;;12.67;12.67;;;;;;;;5005288;28;73532;-82
2022/11/28 04:44:14;;;;;;;;;;;;;;;;;;;;;
2022/11/28 04:46:57;;;;;;;;;;;;;;;;;;;;;
2022/11/28 04:49:27;;;;;;;;;10.33;10.33;;;;;;;;5020675;28;74372;-82
2022/11/28 05:14:00;;;;;;;;;10.00;9.00;;;;;;;;4852647;29;46980;-80
2022/11/28 05:16:56;;;;;;;;;12.67;12.67;;;;;;;;4852867;29;45403;-80
2022/11/28 05:35:14;;;;;;;;;20.33;16.67;;;;;;;;4932090;28;45560;-83
2022/11/28 05:38:15;;;;;;;;;15.67;14.00;;;;;;;;4930113;28;45952;-81
2022/11/28 05:44:33;;;;;;;;;11.33;9.00;;;;;;;;4894684;29;45665;-81
2022/11/28 05:46:58;;;;;;;;;14.33;10.67;;;;;;;;4817166;29;47397;-83
2022/11/28 05:49:24;;;;;;;;;19.00;17.67;;;;;;;;4823734;29;47936;-83
2022/11/28 05:51:51;;;;;;;;;16.00;15.00;;;;;;;;4911729;28;45540;-79
2022/11/28 05:54:16;;;;;;;;;14.00;13.00;;;;;;;;4984916;28;45757;-81
2022/11/28 05:56:41;;;;;;;;;9.00;9.00;;;;;;;;5011085;28;45785;-82
2022/11/28 05:59:07;;;;;;;;;11.00;11.00;;;;;;;;5005520;28;45577;-81
2022/11/28 06:01:32;;;;;;;;;14.00;12.00;;;;;;;;5008983;28;45298;-80
2022/11/28 06:03:59;;;;;;;;;11.67;10.00;;;;;;;;4994665;28;45390;-82
2022/11/28 06:06:26;;;;;;;;;11.00;10.00;;;;;;;;5002715;28;45875;-81
2022/11/28 06:08:51;;;;;;;;;12.00;9.00;;;;;;;;4998417;28;47109;-81
2022/11/28 06:11:18;;;;;;;;;13.33;10.00;;;;;;;;5010919;28;45968;-79
2022/11/28 06:13:44;;;;;;;;;17.33;11.33;;;;;;;;5012675;28;45767;-81
2022/11/28 06:16:10;;;;;;;;;12.33;10.00;;;;;;;;5012074;28;45801;-83
2022/11/28 06:18:35;;;;;;;;;10.67;10.67;;;;;;;;5001165;28;48102;-83
2022/11/28 06:21:02;;;;;;;;;13.67;11.67;;;;;;;;5002937;28;45326;-85
2022/11/28 06:23:27;;;;;;;;;13.67;10.67;;;;;;;;4997832;28;45363;-82
2022/11/28 06:25:58;;;;;;;;;10.67;8.00;;;;;;;;4994602;28;47093;-85
2022/11/28 06:28:23;;;;;;;;;13.33;12.67;;;;;;;;5005538;28;45477;-83
2022/11/28 06:30:49;;;;;;;;;16.67;13.33;;;;;;;;5013019;28;45624;-82
2022/11/28 06:33:14;;;;;;;;;14.33;11.00;;;;;;;;5014127;28;45774;-83
2022/11/28 06:35:39;;;;;;;;;12.33;11.33;;;;;;;;5019319;28;45533;-83
2022/11/28 06:38:06;;;;;;;;;14.00;11.67;;;;;;;;5009943;28;46253;-84
2022/11/28 06:40:31;;;;;;;;;11.33;9.00;;;;;;;;5015439;28;45514;-84
2022/11/28 06:42:58;;;;;;;;;13.00;13.00;;;;;;;;5017809;28;45502;-82
2022/11/28 06:45:23;;;;;;;;;12.00;10.00;;;;;;;;5014144;28;45887;-83
2022/11/28 06:47:49;;;;;;;;;13.67;10.67;;;;;;;;5006441;28;47297;-81
2022/11/28 06:50:14;;;;;;;;;13.33;12.33;;;;;;;;5007886;28;45546;-81
2022/11/28 06:52:39;;;;;;;;;14.00;11.33;;;;;;;;5010862;28;45518;-81
2022/11/28 06:55:05;;;;;;;;;16.33;11.67;;;;;;;;5006834;28;46073;-81
2022/11/28 06:57:31;;;;;;;;;17.67;14.33;;;;;;;;4995701;28;47176;-80
2022/11/28 06:59:56;;;;;;;;;10.33;10.33;;;;;;;;5010397;28;45459;-81
2022/11/28 07:02:23;;;;;;;;;11.67;10.67;;;;;;;;5012548;28;45727;-82
2022/11/28 07:04:49;;;;;;;;;13.33;11.67;;;;;;;;4989758;28;45436;-84
2022/11/28 07:07:14;;;;;;;;;11.00;10.00;;;;;;;;5001551;28;45875;-82
2022/11/28 07:09:39;;;;;;;;;9.67;9.00;;;;;;;;5008292;28;44775;-81
2022/11/28 07:12:05;;;;;;;;;13.33;10.67;;;;;;;;4992128;28;45525;-81
2022/11/28 07:14:31;;;;;;;;;10.00;9.00;;;;;;;;5014544;28;45695;-82
2022/11/28 07:16:56;;;;;;;;;10.33;10.00;;;;;;;;5022102;28;45651;-81
2022/11/28 07:19:22;;;;;;;;;13.00;10.67;;;;;;;;5021535;28;45467;-81
2022/11/28 07:21:48;;;;;;;;;12.33;10.67;;;;;;;;4995552;28;45428;-81
2022/11/28 07:24:13;;;;;;;;;11.67;8.33;;;;;;;;5001636;28;45932;-82
2022/11/28 07:26:39;;;;;;;;;11.00;9.33;;;;;;;;4998323;28;45471;-83
2022/11/28 07:29:06;;;;;;;;;12.00;11.00;;;;;;;;5001278;28;45306;-82
2022/11/28 07:31:32;;;;;;;;;10.33;10.33;;;;;;;;4997772;28;46759;-82
2022/11/28 07:33:59;;;;;;;;;9.00;9.00;;;;;;;;4990107;28;45875;-81
2022/11/28 07:36:27;;;;;;;;;11.67;10.33;;;;;;;;4992203;28;46009;-82
2022/11/28 07:38:54;;;;;;;;;13.33;10.67;;;;;;;;4989219;28;45744;-82
2022/11/28 07:41:20;;;;;;;;;11.00;8.33;;;;;;;;4995146;28;46052;-82
2022/11/28 07:43:46;;;;;;;;;13.67;8.67;;;;;;;;4972594;28;46080;-83
2022/11/28 07:46:14;;;;;;;;;11.33;9.00;;;;;;;;4994497;28;45796;-82
2022/11/28 07:48:39;;;;;;;;;10.33;8.00;;;;;;;;4999470;28;45481;-83
2022/11/28 07:51:08;;;;;;;;;14.00;9.00;;;;;;;;5003574;28;46418;-81
2022/11/28 07:53:34;;;;;;;;;9.00;8.00;;;;;;;;4990908;28;45755;-80
2022/11/28 07:56:00;;;;;;;;;11.00;7.00;;;;;;;;5006374;28;45723;-82
2022/11/28 07:58:25;;;;;;;;;8.33;8.33;;;;;;;;4983320;28;45793;-82
2022/11/28 08:00:51;;;;;;;;;9.00;9.00;;;;;;;;4979512;28;45346;-82
2022/11/28 08:03:16;;;;;;;;;8.67;8.00;;;;;;;;4981132;28;45925;-82
2022/11/28 08:05:48;;;;;;;;;13.33;10.33;;;;;;;;4998956;28;45274;-83
2022/11/28 08:08:15;;;;;;;;;9.00;9.00;;;;;;;;4982027;28;45424;-82
2022/11/28 08:10:40;;;;;;;;;15.67;11.33;;;;;;;;4973785;28;45847;-82
2022/11/28 08:13:05;;;;;;;;;17.67;11.67;;;;;;;;4984867;28;45578;-82
2022/11/28 08:15:31;;;;;;;;;10.00;9.67;;;;;;;;4992981;28;45325;-80
2022/11/28 08:17:56;;;;;;;;;12.00;12.00;;;;;;;;4994394;28;45442;-81
2022/11/28 08:20:22;;;;;;;;;14.33;11.33;;;;;;;;5007551;28;44758;-84
2022/11/28 08:22:48;;;;;;;;;10.67;9.33;;;;;;;;4994805;28;45822;-84
2022/11/28 08:25:14;;;;;;;;;13.67;11.00;;;;;;;;5000560;28;46242;-82
2022/11/28 08:27:39;;;;;;;;;13.00;12.00;;;;;;;;4996956;28;45287;-83
2022/11/28 08:30:05;;;;;;;;;8.33;7.33;;;;;;;;4983939;28;45462;-83
2022/11/28 08:32:31;;;;;;;;;12.33;10.33;;;;;;;;5000863;28;45472;-84
2022/11/28 08:34:56;;;;;;;;;13.33;11.33;;;;;;;;5003908;28;45326;-82
2022/11/28 08:37:21;;;;;;;;;11.33;10.00;;;;;;;;4998424;28;44853;-82
2022/11/28 08:39:47;;;;;;;;;8.00;8.00;;;;;;;;5011808;28;45285;-84
2022/11/28 08:42:12;;;;;;;;;8.67;8.00;;;;;;;;4977657;28;45943;-85
2022/11/28 08:44:37;;;;;;;;;15.67;12.33;;;;;;;;4991602;28;46070;-82
2022/11/28 08:47:03;;;;;;;;;14.33;11.33;;;;;;;;4999539;28;45424;-82
2022/11/28 08:49:30;;;;;;;;;9.67;7.67;;;;;;;;4994801;28;45309;-85
2022/11/28 08:51:56;;;;;;;;;9.33;9.33;;;;;;;;4992618;28;45749;-83
2022/11/28 08:54:21;;;;;;;;;15.33;13.00;;;;;;;;4992809;28;45678;-82
2022/11/28 08:56:47;;;;;;;;;8.67;7.00;;;;;;;;4982625;28;45417;-83
2022/11/28 08:59:13;;;;;;;;;9.00;7.67;;;;;;;;4987400;28;45531;-84
2022/11/28 09:01:38;;;;;;;;;5.33;5.00;;;;;;;;5000872;28;45545;-81
2022/11/28 09:04:04;;;;;;;;;7.67;6.33;;;;;;;;4998340;28;46435;-83
2022/11/28 09:06:29;;;;;;;;;13.33;11.00;;;;;;;;4991958;28;45434;-83
2022/11/28 09:08:56;;;;;;;;;11.00;9.33;;;;;;;;5001986;28;45902;-83
2022/11/28 09:11:22;;;;;;;;;7.33;6.00;;;;;;;;4997704;28;45372;-82
2022/11/28 09:13:59;;;;;;;;;11.00;7.00;;;;;;;;4996066;28;46112;-83
2022/11/28 09:16:25;;;;;;;;;11.00;7.00;;;;;;;;5002524;28;45372;-82
2022/11/28 09:18:52;;;;;;;;;10.67;9.67;;;;;;;;4981192;28;45431;-83
2022/11/28 09:21:18;;;;;;;;;9.67;9.67;;;;;;;;5010898;28;45809;-83
2022/11/28 09:23:46;;;;;;;;;12.33;8.33;;;;;;;;5007751;28;46340;-84
2022/11/28 09:26:16;;;;;;;;;9.00;7.67;;;;;;;;5019872;28;45490;-84
2022/11/28 09:28:41;;;;;;;;;7.33;6.00;;;;;;;;4997595;28;45489;-82
2022/11/28 09:31:08;;;;;;;;;12.00;9.00;;;;;;;;5009418;28;45343;-82
2022/11/28 09:33:34;;;;;;;;;7.33;6.00;;;;;;;;5002030;28;47942;-84
2022/11/28 09:36:09;;;;;;;;;9.67;6.00;;;;;;;;5015012;28;45559;-86
2022/11/28 09:38:35;;;;;;;;;14.33;10.67;;;;;;;;5007555;28;45416;-84
2022/11/28 09:41:03;;;;;;;;;10.67;7.00;;;;;;;;5016985;28;45838;-84
2022/11/28 09:44:05;;;;;;;;;9.00;6.67;;;;;;;;5019630;28;45677;-84
2022/11/28 09:46:54;;;;;;;;;8.00;6.00;;;;;;;;4979816;28;45554;-84
2022/11/28 09:49:24;;;;;;;;;6.67;6.67;;;;;;;;4995508;28;45447;-84
2022/11/28 09:52:04;;;;;;;;;5.67;4.67;;;;;;;;5024059;28;45849;-85
2022/11/28 09:54:58;;;;;;;;;4.00;3.00;;;;;;;;5008206;28;46304;-84
2022/11/28 09:57:48;;;;;;;;;14.00;7.67;;;;;;;;5025739;28;45403;-85
2022/11/28 10:00:21;;;;;;;;;7.33;4.00;;;;;;;;5026423;28;45460;-85
2022/11/28 10:02:50;;;;;;;;;7.33;6.33;;;;;;;;5023368;28;44901;-86
2022/11/28 10:05:42;;;;;;;;;7.33;4.33;;;;;;;;5008540;28;46842;-86
2022/11/28 10:08:35;;;;;;;;;5.67;4.67;;;;;;;;5005871;28;45561;-87
2022/11/28 10:11:08;;;;;;;;;9.00;4.67;;;;;;;;5019612;28;45273;-85
2022/11/28 10:14:00;;;;;;;;;1.67;0.00;;;;;;;;5017646;28;45503;-86
2022/11/28 10:16:50;;;;;;;;;3.33;3.33;;;;;;;;4996317;28;45445;-86
2022/11/28 10:19:20;;;;;;;;;7.00;5.00;;;;;;;;5021625;28;45134;-84
2022/11/28 10:22:11;;;;;;;;;6.00;4.00;;;;;;;;5022789;28;45373;-85
2022/11/28 10:25:04;;;;;;;;;8.00;4.00;;;;;;;;4995753;28;45508;-82
2022/11/28 10:27:35;;;;;;;;;11.67;8.67;;;;;;;;5022972;28;45745;-84
2022/11/28 10:30:32;;;;;;;;;9.33;6.33;;;;;;;;4987418;28;45853;-83
2022/11/28 10:32:58;;;;;;;;;12.67;7.67;;;;;;;;5005633;28;45507;-85
2022/11/28 10:35:55;;;;;;;;;9.33;7.67;;;;;;;;5019275;28;45697;-83
2022/11/28 10:38:33;;;;;;;;;8.00;5.00;;;;;;;;4979763;28;45638;-84
2022/11/28 10:41:11;;;;;;;;;8.33;5.00;;;;;;;;5017327;28;45325;-83
2022/11/28 10:43:55;;;;;;;;;5.00;5.00;;;;;;;;5007931;28;45724;-85
2022/11/28 10:46:40;;;;;;;;;6.25;4.00;;;;;;;;5016036;28;45616;-87
2022/11/28 10:49:29;;;;;;;;;3.67;3.00;;;;;;;;4990734;28;46906;-86
2022/11/28 10:51:54;;;;;;;;;4.00;4.00;;;;;;;;5012748;28;45583;-86
2022/11/28 10:54:29;;;;;;;;;5.75;3.50;;;;;;;;5015803;28;45742;-82
2022/11/28 10:56:54;;;;;;;;;4.00;3.00;;;;;;;;4994476;28;45471;-85
2022/11/28 10:59:25;;;;;;;;;5.00;5.00;;;;;;;;4986968;28;48261;-84
2022/11/28 11:01:52;;;;;;;;;5.75;4.00;;;;;;;;4995198;28;44906;-83
2022/11/28 11:04:19;;;;;;;;;7.00;4.33;;;;;;;;5009263;28;45518;-84
2022/11/28 11:07:00;;;;;;;;;2.67;2.67;;;;;;;;4997564;28;46403;-85
2022/11/28 11:09:25;;;;;;;;;6.33;6.33;;;;;;;;4994894;28;47216;-84
2022/11/28 11:11:56;;;;;;;;;6.67;3.67;;;;;;;;5019802;28;45510;-87
2022/11/28 11:14:41;;;;;;;;;4.00;4.00;;;;;;;;5007061;28;45617;-86
2022/11/28 11:17:22;;;;;;;;;3.33;1.33;;;;;;;;4999742;28;46206;-86
2022/11/28 11:19:50;;;;;;;;;2.67;2.67;;;;;;;;5018930;28;45739;-87
2022/11/28 11:22:20;;;;;;;;;5.00;4.00;;;;;;;;5009913;28;45364;-85
2022/11/28 11:25:06;;;;;;;;;2.33;2.33;;;;;;;;5010398;28;45357;-88
2022/11/28 11:27:32;;;;;;;;;5.67;3.33;;;;;;;;4984966;28;47230;-83
2022/11/28 11:30:01;;;;;;;;;6.00;3.00;;;;;;;;5005656;28;47575;-84
2022/11/28 11:32:28;;;;;;;;;2.00;2.00;;;;;;;;5018921;28;45776;-85
2022/11/28 11:44:39;;;;;;;;;5.00;2.67;;;;;;;;4914317;28;45382;-84
2022/11/28 11:47:10;;;;;;;;;4.33;2.67;;;;;;;;4932270;28;45506;-82
2022/11/28 11:49:35;;;;;;;;;5.00;4.00;;;;;;;;4983355;28;45324;-84
2022/11/28 11:52:03;;;;;;;;;3.67;2.33;;;;;;;;4992419;28;45858;-81
2022/11/28 11:54:32;;;;;;;;;3.00;3.00;;;;;;;;5007509;28;45953;-83
2022/11/28 12:00:28;;;;;;;;;3.00;3.00;;;;;;;;5009614;28;45394;-84
2022/11/28 12:03:03;;;;;;;;;2.67;1.67;;;;;;;;4994291;28;48049;-84
2022/11/28 12:40:51;;;;;;;;;;;;;;;;;;;;;
2022/11/28 12:43:47;;;;;;;;;5.00;4.33;;;;;;;;4953476;28;73353;-87
2022/11/28 12:46:27;;;;;;;;;3.33;2.00;;;;;;;;4985970;28;45498;-85
2022/11/28 12:49:08;;;;;;;;;3.33;3.00;;;;;;;;4992203;28;45498;-82
2022/11/28 12:52:15;;;;;;;;;3.00;3.00;;;;;;;;4999387;28;48442;-85
2022/11/28 12:54:43;;;;;;;;;5.33;3.00;;;;;;;;4997894;28;45511;-82
2022/11/28 12:57:18;;;;;;;;;4.67;4.67;;;;;;;;5006579;28;46379;-83
2022/11/28 13:00:13;;;;;;;;;2.33;2.00;;;;;;;;5023699;28;45357;-85
2022/11/28 13:02:58;;;;;;;;;3.67;3.67;;;;;;;;5020456;28;46862;-86
2022/11/28 13:05:42;;;;;;;;;8.00;3.67;;;;;;;;5026501;28;45372;-84
2022/11/28 13:08:17;;;;;;;;;6.67;4.67;;;;;;;;4986438;28;45639;-87
2022/11/28 13:11:00;;;;;;;;;5.00;3.00;;;;;;;;5020813;28;45816;-84
2022/11/28 13:13:34;;;;;;;;;5.33;3.67;;;;;;;;5000030;28;48161;-83
2022/11/28 13:15:59;;;;;;;;;8.00;4.33;;;;;;;;5003972;28;45804;-83
2022/11/28 13:18:27;;;;;;;;;3.33;3.00;;;;;;;;4986555;28;45731;-81
2022/11/28 13:21:11;;;;;;;;;7.00;4.00;;;;;;;;5009150;28;45618;-83
2022/11/28 13:24:04;;;;;;;;;2.00;2.00;;;;;;;;5008644;28;45702;-82
2022/11/28 13:26:38;;;;;;;;;2.33;1.33;;;;;;;;4993727;28;45477;-84
2022/11/28 13:29:04;;;;;;;;;5.00;3.67;;;;;;;;4997785;28;45787;-81
2022/11/28 13:31:37;;;;;;;;;1.67;1.67;;;;;;;;4989410;28;45440;-82
2022/11/28 13:34:03;;;;;;;;;6.33;2.67;;;;;;;;5010192;28;45724;-81
2022/11/28 13:36:41;;;;;;;;;6.33;3.00;;;;;;;;4988794;28;45761;-84
2022/11/28 13:39:25;;;;;;;;;2.00;2.00;;;;;;;;5018180;28;45788;-82
2022/11/28 13:42:01;;;;;;;;;3.33;3.33;;;;;;;;4995722;28;45724;-83
2022/11/28 13:44:36;;;;;;;;;4.00;3.00;;;;;;;;5007942;28;46742;-83
2022/11/28 13:47:12;;;;;;;;;7.33;5.33;;;;;;;;4999768;28;45876;-83
2022/11/28 13:49:37;;;;;;;;;6.33;4.00;;;;;;;;4996954;28;45520;-81
2022/11/28 13:52:18;;;;;;;;;3.67;2.00;;;;;;;;5023826;28;45700;-81
2022/11/28 13:54:51;;;;;;;;;2.00;2.00;;;;;;;;5008758;28;45737;-82
2022/11/28 13:57:37;;;;;;;;;3.67;3.67;;;;;;;;5008356;28;45826;-82
2022/11/28 14:00:19;;;;;;;;;4.00;3.00;;;;;;;;5016393;28;45682;-82
2022/11/28 14:02:46;;;;;;;;;3.33;2.00;;;;;;;;5021336;28;45072;-80
2022/11/28 14:05:27;;;;;;;;;5.67;2.67;;;;;;;;5005281;28;46276;-83
2022/11/28 14:07:55;;;;;;;;;3.33;3.33;;;;;;;;5015341;28;45538;-81
2022/11/28 14:10:40;;;;;;;;;3.00;2.33;;;;;;;;4996335;28;45876;-82
2022/11/28 14:13:12;;;;;;;;;5.33;3.00;;;;;;;;4996945;28;45542;-82
2022/11/28 14:15:40;;;;;;;;;2.33;2.00;;;;;;;;5016636;28;45650;-82
2022/11/28 14:18:17;;;;;;;;;3.00;2.00;;;;;;;;4987977;28;45836;-83
2022/11/28 14:21:01;;;;;;;;;5.67;3.00;;;;;;;;4987381;28;45831;-83
2022/11/28 14:23:56;;;;;;;;;6.00;3.00;;;;;;;;5010213;28;45827;-83
2022/11/28 14:26:35;;;;;;;;;2.67;2.33;;;;;;;;4929959;28;45374;-82
2022/11/28 14:29:02;;;;;;;;;7.67;5.67;;;;;;;;5008628;28;45776;-82
2022/11/28 14:31:32;;;;;;;;;4.00;4.00;;;;;;;;5008159;28;45784;-82
2022/11/28 14:34:17;;;;;;;;;5.00;3.67;;;;;;;;5009412;28;45545;-83
2022/11/28 14:36:42;;;;;;;;;1.00;1.00;;;;;;;;5014750;28;46165;-82
2022/11/28 14:39:09;;;;;;;;;2.33;2.00;;;;;;;;5012066;28;45764;-82
2022/11/28 14:41:53;;;;;;;;;4.67;2.00;;;;;;;;5006356;28;45798;-83
2022/11/28 14:44:37;;;;;;;;;1.67;1.67;;;;;;;;4997445;28;46373;-83
2022/11/28 14:47:14;;;;;;;;;2.00;2.00;;;;;;;;4997961;28;48122;-83
2022/11/28 14:49:39;;;;;;;;;2.67;2.33;;;;;;;;5003766;28;45400;-77
2022/11/28 14:52:05;;;;;;;;;3.00;3.00;;;;;;;;5003289;28;45546;-81
2022/11/28 14:54:53;;;;;;;;;4.00;3.00;;;;;;;;4988219;28;46206;-81
2022/11/28 14:57:24;;;;;;;;;3.00;1.67;;;;;;;;4995418;28;45185;-82
2022/11/28 15:00:14;;;;;;;;;4.67;3.33;;;;;;;;5006699;28;45818;-82
2022/11/28 15:02:51;;;;;;;;;5.33;4.00;;;;;;;;4995152;28;45484;-82
2022/11/28 15:05:16;;;;;;;;;4.67;4.67;;;;;;;;4992739;28;45815;-82
2022/11/28 15:07:42;;;;;;;;;4.00;4.00;;;;;;;;5009501;28;45394;-84
2022/11/28 15:10:27;;;;;;;;;9.67;6.00;;;;;;;;5036717;28;45505;-83
2022/11/28 15:13:06;;;;;;;;;12.33;9.00;;;;;;;;5014875;28;45385;-83
2022/11/28 15:15:34;;;;;;;;;9.33;6.33;;;;;;;;5010386;28;45654;-81
2022/11/28 15:18:05;;;;;;;;;10.67;5.67;;;;;;;;5011984;28;45563;-82
2022/11/28 15:20:49;;;;;;;;;6.67;5.33;;;;;;;;5011779;28;45517;-82
2022/11/28 15:23:31;;;;;;;;;7.00;3.00;;;;;;;;4989858;28;45839;-82
2022/11/28 15:25:58;;;;;;;;;6.33;3.00;;;;;;;;5012693;28;45576;-82
2022/11/28 15:28:27;;;;;;;;;5.67;5.00;;;;;;;;4997390;28;45919;-82
2022/11/28 15:30:53;;;;;;;;;3.00;3.00;;;;;;;;5007503;28;45941;-84
2022/11/28 15:33:18;;;;;;;;;5.33;5.33;;;;;;;;5012697;28;45480;-83
2022/11/28 15:35:56;;;;;;;;;6.67;4.00;;;;;;;;5013389;28;45727;-83
2022/11/28 15:38:22;;;;;;;;;5.33;3.67;;;;;;;;4993812;28;47211;-80
2022/11/28 15:40:49;;;;;;;;;6.33;4.00;;;;;;;;4994324;28;45801;-83
2022/11/28 15:43:18;;;;;;;;;2.33;0.33;;;;;;;;5006563;28;45660;-83
2022/11/28 15:46:04;;;;;;;;;1.67;1.67;;;;;;;;5017330;28;45890;-82
2022/11/28 15:48:33;;;;;;;;;5.67;2.67;;;;;;;;5012492;28;46342;-84
2022/11/28 15:50:59;;;;;;;;;5.00;3.33;;;;;;;;5010527;28;45566;-82
2022/11/28 15:53:24;;;;;;;;;3.67;3.00;;;;;;;;5000749;28;45613;-85
2022/11/28 15:56:10;;;;;;;;;5.67;2.67;;;;;;;;5004299;28;45910;-85
2022/11/28 15:58:44;;;;;;;;;7.33;4.00;;;;;;;;5005477;28;48028;-83
2022/11/28 16:01:09;;;;;;;;;7.00;5.33;;;;;;;;5009784;28;45511;-78
2022/11/28 16:03:40;;;;;;;;;7.00;3.33;;;;;;;;5005781;28;45594;-83
2022/11/28 16:06:10;;;;;;;;;7.00;4.33;;;;;;;;5007716;28;45818;-82
2022/11/28 16:08:41;;;;;;;;;3.00;3.00;;;;;;;;5007319;28;48056;-81
2022/11/28 16:11:07;;;;;;;;;4.67;3.67;;;;;;;;5018055;28;45801;-84
2022/11/28 16:13:37;;;;;;;;;8.67;4.67;;;;;;;;5001277;28;45953;-82
2022/11/28 16:16:07;;;;;;;;;8.33;7.00;;;;;;;;4998842;28;45777;-83
2022/11/28 16:18:46;;;;;;;;;6.33;5.00;;;;;;;;5012770;28;48731;-84
2022/11/28 16:21:12;;;;;;;;;5.00;4.67;;;;;;;;4990282;28;45834;-84
2022/11/28 16:23:38;;;;;;;;;5.67;4.67;;;;;;;;4993527;28;45991;-84
2022/11/28 16:26:08;;;;;;;;;6.67;3.00;;;;;;;;5003858;28;46100;-84
2022/11/28 16:28:39;;;;;;;;;3.33;3.33;;;;;;;;5003111;28;45548;-84
2022/11/28 16:31:11;;;;;;;;;7.33;5.00;;;;;;;;4996680;28;45392;-82
2022/11/28 16:33:37;;;;;;;;;5.00;4.00;;;;;;;;5018488;28;45795;-85
2022/11/28 16:36:14;;;;;;;;;18.33;14.00;;;;;;;;5011645;28;46082;-85
2022/11/28 16:38:41;;;;;;;;;14.33;13.67;;;;;;;;4994965;28;46853;-84
2022/11/28 16:41:13;;;;;;;;;12.33;9.33;;;;;;;;5020244;28;45369;-84
2022/11/28 16:43:39;;;;;;;;;15.00;11.67;;;;;;;;5008371;28;45572;-85
2022/11/28 16:46:06;;;;;;;;;9.33;7.67;;;;;;;;5016461;28;45814;-85
2022/11/28 16:48:36;;;;;;;;;14.33;10.00;;;;;;;;4998861;28;46149;-86
2022/11/28 16:51:11;;;;;;;;;36.33;29.00;;;;;;;;5004706;28;45992;-84
2022/11/28 16:53:59;;;;;;;;;46.67;38.67;;;;;;;;5005765;28;47224;-84
2022/11/28 16:56:28;;;;;;;;;46.00;37.50;;;;;;;;4986996;28;47111;-84
2022/11/28 16:59:09;;;;;;;;;27.67;22.00;;;;;;;;5003652;28;46122;-82
2022/11/28 17:01:41;;;;;;;;;34.00;29.50;;;;;;;;5002569;28;45379;-86
2022/11/28 17:04:20;;;;;;;;;23.00;18.00;;;;;;;;4998914;28;45503;-83
2022/11/28 17:06:46;;;;;;;;;20.67;17.33;;;;;;;;5001446;28;45718;-83
2022/11/28 17:09:40;;;;;;;;;17.33;17.33;;;;;;;;5004123;28;47136;-82
2022/11/28 17:12:38;;;;;;;;;18.00;14.00;;;;;;;;4954717;28;45830;-85
2022/11/28 17:15:05;;;;;;;;;16.67;12.00;;;;;;;;5009498;28;45831;-82
2022/11/28 17:17:36;;;;;;;;;11.33;11.33;;;;;;;;5004965;28;45812;-82
2022/11/28 17:20:25;;;;;;;;;17.00;10.67;;;;;;;;5007991;28;46463;-82
2022/11/28 17:22:52;;;;;;;;;15.33;14.00;;;;;;;;5001184;28;45598;-81
2022/11/28 17:28:08;;;;;;;;;15.67;13.00;;;;;;;;4945062;28;45699;-83
2022/11/28 17:30:54;;;;;;;;;;;;;;;;;;;;;
2022/11/28 17:33:21;;;;;;;;;20.33;15.33;;;;;;;;5011625;28;73393;-83
2022/11/28 17:35:56;;;;;;;;;13.00;13.00;;;;;;;;5010010;28;45491;-82
2022/11/28 17:38:21;;;;;;;;;17.33;14.67;;;;;;;;4998295;28;45619;-87
2022/11/28 17:40:47;;;;;;;;;29.67;24.67;;;;;;;;4996878;28;47099;-83
2022/11/28 17:43:37;;;;;;;;;19.33;17.00;;;;;;;;5023236;28;45587;-85
2022/11/28 17:46:04;;;;;;;;;20.67;15.33;;;;;;;;4992037;28;45429;-83
2022/11/28 17:48:57;;;;;;;;;60.00;47.25;;;;;;;;4993319;28;46013;-84
2022/11/28 17:51:24;;;;;;;;;33.33;29.33;;;;;;;;4973698;28;46148;-82
2022/11/28 17:57:09;;;;;;;;;20.67;15.00;;;;;;;;5001740;28;45297;-85
2022/11/28 17:59:38;;;;;;;;;15.00;13.00;;;;;;;;4996736;28;45955;-83
2022/11/28 18:02:05;;;;;;;;;23.67;16.33;;;;;;;;5000580;28;45811;-86
2022/11/28 18:04:31;;;;;;;;;17.00;14.67;;;;;;;;4990688;28;45485;-83
2022/11/28 18:07:09;;;;;;;;;15.67;12.00;;;;;;;;4995468;28;45949;-86
2022/11/28 18:09:39;;;;;;;;;45.67;35.33;;;;;;;;5008833;28;45623;-82
2022/11/28 18:12:08;;;;;;;;;36.67;29.67;;;;;;;;4990944;28;48219;-86
2022/11/28 18:14:46;;;;;;;;;60.50;44.75;;;;;;;;5010687;28;45308;-84
2022/11/28 18:17:26;;;;;;;;;51.25;37.75;;;;;;;;5007770;28;45587;-85
2022/11/28 18:19:54;;;;;;;;;50.00;37.25;;;;;;;;4997859;28;45618;-83
2022/11/28 18:22:36;;;;;;;;;16.33;11.33;;;;;;;;5009148;28;46735;-85
2022/11/28 18:25:07;;;;;;;;;21.00;16.00;;;;;;;;4987684;28;45556;-82
2022/11/28 18:28:13;;;;;;;;;;;;;;;;;;;;;
2022/11/28 18:34:23;;;;;;;;;18.67;16.33;;;;;;;;4842107;28;45540;-84
2022/11/28 18:36:57;;;;;;;;;18.00;14.67;;;;;;;;4943471;28;45704;-83
2022/11/28 18:39:30;;;;;;;;;19.33;17.67;;;;;;;;4992448;28;45918;-84
2022/11/28 18:42:04;;;;;;;;;10.67;10.67;;;;;;;;4989743;28;45546;-84
2022/11/28 18:44:36;;;;;;;;;10.00;9.00;;;;;;;;5007778;28;46073;-84
2022/11/28 18:47:18;;;;;;;;;13.00;13.00;;;;;;;;5019873;28;44830;-84
2022/11/28 18:49:52;;;;;;;;;15.00;13.33;;;;;;;;5010590;28;45489;-83
2022/11/28 18:52:30;;;;;;;;;17.33;14.00;;;;;;;;5001671;28;45792;-84
2022/11/28 18:55:00;;;;;;;;;18.67;16.00;;;;;;;;5011364;28;47365;-83
2022/11/28 18:57:30;;;;;;;;;24.00;21.00;;;;;;;;5011289;28;45896;-83
2022/11/28 18:59:58;;;;;;;;;15.67;12.67;;;;;;;;5000331;28;45484;-84
2022/11/28 19:02:23;;;;;;;;;11.00;8.67;;;;;;;;5009866;28;45633;-83
2022/11/28 19:04:50;;;;;;;;;17.67;12.00;;;;;;;;5013454;28;46180;-85
2022/11/28 19:07:17;;;;;;;;;16.67;13.33;;;;;;;;5017873;28;45641;-85
2022/11/28 19:09:46;;;;;;;;;12.67;12.67;;;;;;;;5008901;28;45761;-84
2022/11/28 19:12:26;;;;;;;;;11.33;8.00;;;;;;;;5011873;28;46084;-85
2022/11/28 19:14:56;;;;;;;;;11.67;9.33;;;;;;;;5018647;28;45760;-84
2022/11/28 19:17:32;;;;;;;;;15.67;14.00;;;;;;;;5014654;28;45587;-85
2022/11/28 19:19:57;;;;;;;;;16.67;16.67;;;;;;;;5012400;28;45544;-85
2022/11/28 19:22:23;;;;;;;;;20.00;18.00;;;;;;;;5017619;28;46121;-84
2022/11/28 19:24:49;;;;;;;;;15.00;12.00;;;;;;;;5011155;28;45369;-86
2022/11/28 19:27:14;;;;;;;;;21.33;15.67;;;;;;;;5010396;28;45481;-83
2022/11/28 19:29:39;;;;;;;;;12.00;10.67;;;;;;;;5006415;28;45391;-83
2022/11/28 19:32:06;;;;;;;;;16.67;16.33;;;;;;;;5008079;28;46047;-85
2022/11/28 19:34:31;;;;;;;;;11.33;9.00;;;;;;;;5019282;28;45740;-82
2022/11/28 19:36:57;;;;;;;;;10.67;10.00;;;;;;;;5010561;28;45718;-83
2022/11/28 19:39:23;;;;;;;;;11.00;10.00;;;;;;;;5011212;28;45454;-83
2022/11/28 19:41:50;;;;;;;;;9.67;9.67;;;;;;;;5012239;28;45895;-84
2022/11/28 19:44:15;;;;;;;;;9.67;9.67;;;;;;;;5001070;28;47770;-84
2022/11/28 19:46:42;;;;;;;;;12.00;11.00;;;;;;;;5001342;28;45451;-83
2022/11/28 19:49:20;;;;;;;;;10.67;9.00;;;;;;;;4998908;28;45498;-83
2022/11/28 19:51:46;;;;;;;;;11.33;8.67;;;;;;;;4998567;28;45626;-87
2022/11/28 19:54:12;;;;;;;;;13.67;13.00;;;;;;;;5012563;28;47118;-84
2022/11/28 19:56:38;;;;;;;;;19.00;15.00;;;;;;;;5010954;28;45467;-85
2022/11/28 19:59:04;;;;;;;;;14.33;12.00;;;;;;;;5010060;28;45483;-85
2022/11/28 20:01:34;;;;;;;;;17.67;15.00;;;;;;;;5003670;28;46129;-84
2022/11/28 20:04:01;;;;;;;;;12.67;11.67;;;;;;;;5008388;28;45848;-82
2022/11/28 20:06:27;;;;;;;;;16.67;14.00;;;;;;;;5001005;28;45408;-83
2022/11/28 20:08:54;;;;;;;;;15.67;13.33;;;;;;;;5005027;28;45952;-83
2022/11/28 20:11:21;;;;;;;;;10.33;10.00;;;;;;;;5000209;28;46602;-83
2022/11/28 20:13:46;;;;;;;;;10.33;9.67;;;;;;;;4995767;28;46391;-83
2022/11/28 20:16:14;;;;;;;;;17.00;14.33;;;;;;;;4995371;28;45819;-85
2022/11/28 20:18:43;;;;;;;;;12.33;10.67;;;;;;;;5001303;28;45701;-87
2022/11/28 20:21:10;;;;;;;;;14.67;14.00;;;;;;;;5009759;28;45499;-83